sensor_id;sensor_type;location;lat;lon;timestamp;pressure;altitude;pressure_sealevel;temperature;humidity
61908;BME280;47864;52.526;19.672;2023-04-25T00:00:11;99646.94;;;13.62;100.00
61908;BME280;47864;52.526;19.672;2023-04-25T00:02:13;99632.97;;;13.32;100.00
61908;BME280;47864;52.526;19.672;2023-04-25T00:04:14;99643.88;;;13.37;100.00
61908;BME280;47864;52.526;19.672;2023-04-25T00:06:16;99644.00;;;13.50;100.00
61908;BME280;47864;52.526;19.672;2023-04-25T00:08:18;99649.47;;;13.70;100.00
61908;BME280;47864;52.526;19.672;2023-04-25T00:10:20;99649.31;;;13.78;100.00
61908;BME280;47864;52.526;19.672;2023-04-25T00:12:22;99653.63;;;13.79;100.00
61908;BME280;47864;52.526;19.672;2023-04-25T00:14:23;99658.28;;;13.70;100.00
61908;BME280;47864;52.526;19.672;2023-04-25T00:16:25;99659.63;;;13.60;100.00
61908;BME280;47864;52.526;19.672;2023-04-25T00:18:26;99657.03;;;13.66;100.00
61908;BME280;47864;52.526;19.672;2023-04-25T00:20:28;99632.09;;;13.53;100.00
61908;BME280;47864;52.526;19.672;2023-04-25T00:22:29;99655.81;;;13.69;100.00
61908;BME280;47864;52.526;19.672;2023-04-25T00:24:31;99653.53;;;13.66;100.00
61908;BME280;47864;52.526;19.672;2023-04-25T00:26:34;99636.19;;;13.49;100.00
61908;BME280;47864;52.526;19.672;2023-04-25T00:28:36;99654.09;;;13.61;100.00
61908;BME280;47864;52.526;19.672;2023-04-25T00:30:38;99659.25;;;13.63;100.00
61908;BME280;47864;52.526;19.672;2023-04-25T00:32:40;99655.06;;;13.54;100.00
61908;BME280;47864;52.526;19.672;2023-04-25T00:34:42;99651.34;;;13.48;100.00
61908;BME280;47864;52.526;19.672;2023-04-25T00:36:43;99658.75;;;13.53;100.00
61908;BME280;47864;52.526;19.672;2023-04-25T00:38:45;99654.94;;;13.62;100.00
61908;BME280;47864;52.526;19.672;2023-04-25T00:40:46;99650.63;;;13.61;100.00
61908;BME280;47864;52.526;19.672;2023-04-25T00:42:49;99655.19;;;13.67;100.00
61908;BME280;47864;52.526;19.672;2023-04-25T00:44:52;99652.38;;;13.75;100.00
61908;BME280;47864;52.526;19.672;2023-04-25T00:46:54;99623.47;;;13.51;100.00
61908;BME280;47864;52.526;19.672;2023-04-25T00:48:55;99651.88;;;13.65;100.00
61908;BME280;47864;52.526;19.672;2023-04-25T00:50:58;99630.69;;;13.29;100.00
61908;BME280;47864;52.526;19.672;2023-04-25T00:53:00;99641.50;;;13.49;100.00
61908;BME280;47864;52.526;19.672;2023-04-25T00:55:02;99632.66;;;13.20;100.00
61908;BME280;47864;52.526;19.672;2023-04-25T00:57:03;99645.97;;;13.20;100.00
61908;BME280;47864;52.526;19.672;2023-04-25T00:59:05;99644.59;;;13.24;100.00
61908;BME280;47864;52.526;19.672;2023-04-25T01:01:07;99647.91;;;13.12;100.00
61908;BME280;47864;52.526;19.672;2023-04-25T01:03:09;99649.50;;;13.06;100.00
61908;BME280;47864;52.526;19.672;2023-04-25T01:05:11;99649.69;;;13.05;100.00
61908;BME280;47864;52.526;19.672;2023-04-25T01:07:13;99626.63;;;12.90;100.00
61908;BME280;47864;52.526;19.672;2023-04-25T01:09:14;99638.22;;;13.04;100.00
61908;BME280;47864;52.526;19.672;2023-04-25T01:11:16;99622.06;;;12.84;100.00
61908;BME280;47864;52.526;19.672;2023-04-25T01:13:18;99645.38;;;12.82;100.00
61908;BME280;47864;52.526;19.672;2023-04-25T01:15:20;99626.84;;;12.74;100.00
61908;BME280;47864;52.526;19.672;2023-04-25T01:17:21;99644.78;;;12.87;100.00
61908;BME280;47864;52.526;19.672;2023-04-25T01:19:23;99652.00;;;12.93;100.00
61908;BME280;47864;52.526;19.672;2023-04-25T01:21:25;99648.09;;;12.89;100.00
61908;BME280;47864;52.526;19.672;2023-04-25T01:23:26;99644.25;;;12.77;100.00
61908;BME280;47864;52.526;19.672;2023-04-25T01:25:29;99650.91;;;12.66;100.00
61908;BME280;47864;52.526;19.672;2023-04-25T01:27:30;99654.84;;;12.70;100.00
61908;BME280;47864;52.526;19.672;2023-04-25T01:29:33;99632.78;;;12.55;100.00
61908;BME280;47864;52.526;19.672;2023-04-25T01:31:36;99626.25;;;12.57;100.00
61908;BME280;47864;52.526;19.672;2023-04-25T01:33:38;99643.94;;;12.65;100.00
61908;BME280;47864;52.526;19.672;2023-04-25T01:35:39;99642.94;;;12.66;100.00
61908;BME280;47864;52.526;19.672;2023-04-25T01:37:41;99633.97;;;12.52;100.00
61908;BME280;47864;52.526;19.672;2023-04-25T01:39:44;99632.34;;;12.51;100.00
61908;BME280;47864;52.526;19.672;2023-04-25T01:41:48;99629.69;;;12.51;100.00
61908;BME280;47864;52.526;19.672;2023-04-25T01:43:50;99640.38;;;12.58;100.00
61908;BME280;47864;52.526;19.672;2023-04-25T01:45:52;99640.22;;;12.45;100.00
61908;BME280;47864;52.526;19.672;2023-04-25T01:47:53;99612.28;;;12.34;100.00
61908;BME280;47864;52.526;19.672;2023-04-25T01:49:55;99630.03;;;12.48;100.00
61908;BME280;47864;52.526;19.672;2023-04-25T01:51:57;99643.34;;;12.48;100.00
61908;BME280;47864;52.526;19.672;2023-04-25T01:53:59;99643.59;;;12.53;100.00
61908;BME280;47864;52.526;19.672;2023-04-25T01:56:01;99652.50;;;12.46;100.00
61908;BME280;47864;52.526;19.672;2023-04-25T01:58:03;99642.69;;;12.46;100.00
61908;BME280;47864;52.526;19.672;2023-04-25T02:00:06;99644.09;;;12.42;100.00
61908;BME280;47864;52.526;19.672;2023-04-25T02:02:07;99629.50;;;12.38;100.00
61908;BME280;47864;52.526;19.672;2023-04-25T02:04:09;99646.66;;;12.50;100.00
61908;BME280;47864;52.526;19.672;2023-04-25T02:06:11;99629.41;;;12.46;100.00
61908;BME280;47864;52.526;19.672;2023-04-25T02:08:12;99630.94;;;12.55;100.00
61908;BME280;47864;52.526;19.672;2023-04-25T02:10:14;99642.59;;;12.54;100.00
61908;BME280;47864;52.526;19.672;2023-04-25T02:12:16;99634.19;;;12.51;100.00
61908;BME280;47864;52.526;19.672;2023-04-25T02:14:17;99641.63;;;12.41;100.00
61908;BME280;47864;52.526;19.672;2023-04-25T02:16:19;99640.25;;;12.30;100.00
61908;BME280;47864;52.526;19.672;2023-04-25T02:18:21;99650.13;;;12.36;100.00
61908;BME280;47864;52.526;19.672;2023-04-25T02:20:23;99648.78;;;12.40;100.00
61908;BME280;47864;52.526;19.672;2023-04-25T02:22:25;99648.41;;;12.43;100.00
61908;BME280;47864;52.526;19.672;2023-04-25T02:24:26;99641.06;;;12.31;100.00
61908;BME280;47864;52.526;19.672;2023-04-25T02:26:28;99640.59;;;12.27;100.00
61908;BME280;47864;52.526;19.672;2023-04-25T02:28:30;99652.25;;;12.41;100.00
61908;BME280;47864;52.526;19.672;2023-04-25T02:30:31;99632.81;;;12.11;100.00
61908;BME280;47864;52.526;19.672;2023-04-25T02:32:33;99647.50;;;12.22;100.00
61908;BME280;47864;52.526;19.672;2023-04-25T02:34:35;99646.84;;;12.19;100.00
61908;BME280;47864;52.526;19.672;2023-04-25T02:36:36;99654.31;;;12.09;100.00
61908;BME280;47864;52.526;19.672;2023-04-25T02:38:38;99639.88;;;12.04;100.00
61908;BME280;47864;52.526;19.672;2023-04-25T02:40:40;99649.34;;;12.06;100.00
61908;BME280;47864;52.526;19.672;2023-04-25T02:42:42;99616.97;;;11.88;100.00
61908;BME280;47864;52.526;19.672;2023-04-25T02:44:43;99635.06;;;11.93;100.00
61908;BME280;47864;52.526;19.672;2023-04-25T02:46:45;99646.59;;;12.00;100.00
61908;BME280;47864;52.526;19.672;2023-04-25T02:48:46;99645.47;;;11.94;100.00
61908;BME280;47864;52.526;19.672;2023-04-25T02:50:48;99646.16;;;11.73;100.00
61908;BME280;47864;52.526;19.672;2023-04-25T02:52:50;99638.19;;;11.73;100.00
61908;BME280;47864;52.526;19.672;2023-04-25T02:54:51;99649.34;;;11.77;100.00
61908;BME280;47864;52.526;19.672;2023-04-25T02:56:52;99653.75;;;11.62;100.00
61908;BME280;47864;52.526;19.672;2023-04-25T02:58:54;99646.34;;;11.57;100.00
61908;BME280;47864;52.526;19.672;2023-04-25T03:00:55;99653.94;;;11.60;100.00
61908;BME280;47864;52.526;19.672;2023-04-25T03:02:57;99651.09;;;11.62;100.00
61908;BME280;47864;52.526;19.672;2023-04-25T03:04:59;99644.94;;;11.61;100.00
61908;BME280;47864;52.526;19.672;2023-04-25T03:07:00;99646.16;;;11.59;100.00
61908;BME280;47864;52.526;19.672;2023-04-25T03:09:02;99649.69;;;11.36;100.00
61908;BME280;47864;52.526;19.672;2023-04-25T03:11:03;99657.50;;;11.53;100.00
61908;BME280;47864;52.526;19.672;2023-04-25T03:13:05;99649.72;;;11.51;100.00
61908;BME280;47864;52.526;19.672;2023-04-25T03:15:07;99653.00;;;11.53;100.00
61908;BME280;47864;52.526;19.672;2023-04-25T03:17:08;99647.47;;;11.40;100.00
61908;BME280;47864;52.526;19.672;2023-04-25T03:19:10;99653.53;;;11.34;100.00
61908;BME280;47864;52.526;19.672;2023-04-25T03:21:11;99628.44;;;11.14;100.00
61908;BME280;47864;52.526;19.672;2023-04-25T03:23:13;99633.06;;;11.20;100.00
61908;BME280;47864;52.526;19.672;2023-04-25T03:25:14;99644.69;;;11.19;100.00
61908;BME280;47864;52.526;19.672;2023-04-25T03:27:17;99662.03;;;11.06;100.00
61908;BME280;47864;52.526;19.672;2023-04-25T03:29:18;99660.63;;;11.19;100.00
61908;BME280;47864;52.526;19.672;2023-04-25T03:31:20;99643.66;;;10.97;100.00
61908;BME280;47864;52.526;19.672;2023-04-25T03:33:21;99658.97;;;11.18;100.00
61908;BME280;47864;52.526;19.672;2023-04-25T03:35:23;99661.63;;;10.95;100.00
61908;BME280;47864;52.526;19.672;2023-04-25T03:37:26;99661.47;;;10.88;100.00
61908;BME280;47864;52.526;19.672;2023-04-25T03:39:28;99633.81;;;10.60;100.00
61908;BME280;47864;52.526;19.672;2023-04-25T03:41:29;99659.53;;;10.82;100.00
61908;BME280;47864;52.526;19.672;2023-04-25T03:43:31;99658.88;;;10.80;100.00
61908;BME280;47864;52.526;19.672;2023-04-25T03:45:32;99662.13;;;10.90;100.00
61908;BME280;47864;52.526;19.672;2023-04-25T03:47:34;99649.72;;;10.60;100.00
61908;BME280;47864;52.526;19.672;2023-04-25T03:49:35;99660.75;;;10.72;100.00
61908;BME280;47864;52.526;19.672;2023-04-25T03:51:37;99676.91;;;10.62;100.00
61908;BME280;47864;52.526;19.672;2023-04-25T03:53:39;99679.25;;;10.49;100.00
61908;BME280;47864;52.526;19.672;2023-04-25T03:55:41;99673.00;;;10.42;100.00
61908;BME280;47864;52.526;19.672;2023-04-25T03:57:43;99682.94;;;10.40;100.00
61908;BME280;47864;52.526;19.672;2023-04-25T03:59:45;99675.69;;;10.34;100.00
61908;BME280;47864;52.526;19.672;2023-04-25T04:01:46;99685.41;;;10.49;100.00
61908;BME280;47864;52.526;19.672;2023-04-25T04:03:48;99687.31;;;10.63;100.00
61908;BME280;47864;52.526;19.672;2023-04-25T04:05:50;99684.50;;;10.65;100.00
61908;BME280;47864;52.526;19.672;2023-04-25T04:07:52;99662.94;;;10.37;100.00
61908;BME280;47864;52.526;19.672;2023-04-25T04:09:54;99681.88;;;10.57;100.00
61908;BME280;47864;52.526;19.672;2023-04-25T04:11:55;99683.78;;;10.71;100.00
61908;BME280;47864;52.526;19.672;2023-04-25T04:13:57;99676.97;;;10.77;100.00
61908;BME280;47864;52.526;19.672;2023-04-25T04:15:58;99693.84;;;10.84;100.00
61908;BME280;47864;52.526;19.672;2023-04-25T04:18:00;99691.13;;;10.69;100.00
61908;BME280;47864;52.526;19.672;2023-04-25T04:20:02;99697.22;;;10.78;100.00
61908;BME280;47864;52.526;19.672;2023-04-25T04:22:04;99700.31;;;10.81;100.00
61908;BME280;47864;52.526;19.672;2023-04-25T04:24:05;99698.16;;;10.54;100.00
61908;BME280;47864;52.526;19.672;2023-04-25T04:26:07;99690.69;;;10.49;100.00
61908;BME280;47864;52.526;19.672;2023-04-25T04:28:09;99699.25;;;10.67;100.00
61908;BME280;47864;52.526;19.672;2023-04-25T04:30:10;99685.41;;;10.49;100.00
61908;BME280;47864;52.526;19.672;2023-04-25T04:32:13;99688.41;;;10.38;100.00
61908;BME280;47864;52.526;19.672;2023-04-25T04:34:15;99695.88;;;10.43;100.00
61908;BME280;47864;52.526;19.672;2023-04-25T04:36:16;99701.13;;;10.51;100.00
61908;BME280;47864;52.526;19.672;2023-04-25T04:38:18;99694.31;;;10.56;100.00
61908;BME280;47864;52.526;19.672;2023-04-25T04:40:19;99705.44;;;10.52;100.00
61908;BME280;47864;52.526;19.672;2023-04-25T04:42:21;99706.88;;;10.62;100.00
61908;BME280;47864;52.526;19.672;2023-04-25T04:44:23;99710.34;;;10.63;100.00
61908;BME280;47864;52.526;19.672;2023-04-25T04:46:24;99711.38;;;10.62;100.00
61908;BME280;47864;52.526;19.672;2023-04-25T04:48:26;99711.38;;;10.62;100.00
61908;BME280;47864;52.526;19.672;2023-04-25T04:50:27;99713.94;;;10.39;100.00
61908;BME280;47864;52.526;19.672;2023-04-25T04:52:29;99713.94;;;10.39;100.00
61908;BME280;47864;52.526;19.672;2023-04-25T04:54:31;99704.56;;;10.12;100.00
61908;BME280;47864;52.526;19.672;2023-04-25T04:56:32;99709.50;;;10.15;100.00
61908;BME280;47864;52.526;19.672;2023-04-25T04:58:34;99718.13;;;10.25;100.00
61908;BME280;47864;52.526;19.672;2023-04-25T05:00:35;99706.69;;;10.17;100.00
61908;BME280;47864;52.526;19.672;2023-04-25T05:02:38;99723.94;;;10.21;100.00
61908;BME280;47864;52.526;19.672;2023-04-25T05:04:40;99703.25;;;10.00;100.00
61908;BME280;47864;52.526;19.672;2023-04-25T05:06:42;99713.84;;;10.08;100.00
61908;BME280;47864;52.526;19.672;2023-04-25T05:08:44;99714.31;;;10.28;100.00
61908;BME280;47864;52.526;19.672;2023-04-25T05:10:46;99718.28;;;10.16;100.00
61908;BME280;47864;52.526;19.672;2023-04-25T05:12:47;99726.56;;;10.29;100.00
61908;BME280;47864;52.526;19.672;2023-04-25T05:14:49;99730.06;;;10.21;100.00
61908;BME280;47864;52.526;19.672;2023-04-25T05:16:50;99719.28;;;10.15;100.00
61908;BME280;47864;52.526;19.672;2023-04-25T05:18:52;99715.50;;;10.09;100.00
61908;BME280;47864;52.526;19.672;2023-04-25T05:20:53;99713.16;;;10.14;100.00
61908;BME280;47864;52.526;19.672;2023-04-25T05:22:55;99722.63;;;10.09;100.00
61908;BME280;47864;52.526;19.672;2023-04-25T05:24:57;99741.00;;;10.02;100.00
61908;BME280;47864;52.526;19.672;2023-04-25T05:26:58;99732.22;;;10.02;100.00
61908;BME280;47864;52.526;19.672;2023-04-25T05:29:00;99745.16;;;9.88;100.00
61908;BME280;47864;52.526;19.672;2023-04-25T05:31:01;99740.84;;;10.04;100.00
61908;BME280;47864;52.526;19.672;2023-04-25T05:33:03;99741.88;;;9.86;100.00
61908;BME280;47864;52.526;19.672;2023-04-25T05:35:05;99717.19;;;9.94;100.00
61908;BME280;47864;52.526;19.672;2023-04-25T05:37:07;99736.38;;;10.04;100.00
61908;BME280;47864;52.526;19.672;2023-04-25T05:39:08;99745.94;;;10.13;100.00
61908;BME280;47864;52.526;19.672;2023-04-25T05:41:10;99746.28;;;10.10;100.00
61908;BME280;47864;52.526;19.672;2023-04-25T05:43:11;99751.25;;;10.05;100.00
61908;BME280;47864;52.526;19.672;2023-04-25T05:45:13;99748.94;;;10.26;100.00
61908;BME280;47864;52.526;19.672;2023-04-25T05:47:14;99751.56;;;10.35;100.00
61908;BME280;47864;52.526;19.672;2023-04-25T05:49:16;99756.75;;;10.20;100.00
61908;BME280;47864;52.526;19.672;2023-04-25T05:51:20;99731.06;;;10.12;100.00
61908;BME280;47864;52.526;19.672;2023-04-25T05:53:21;99745.94;;;10.21;100.00
61908;BME280;47864;52.526;19.672;2023-04-25T05:55:23;99746.97;;;10.12;100.00
61908;BME280;47864;52.526;19.672;2023-04-25T05:57:26;99730.44;;;9.86;100.00
61908;BME280;47864;52.526;19.672;2023-04-25T05:59:28;99753.56;;;10.08;100.00
61908;BME280;47864;52.526;19.672;2023-04-25T06:01:29;99734.03;;;10.09;100.00
61908;BME280;47864;52.526;19.672;2023-04-25T06:03:31;99750.75;;;10.26;100.00
61908;BME280;47864;52.526;19.672;2023-04-25T06:05:33;99748.56;;;10.46;100.00
61908;BME280;47864;52.526;19.672;2023-04-25T06:07:34;99741.44;;;10.38;100.00
61908;BME280;47864;52.526;19.672;2023-04-25T06:09:36;99725.41;;;10.23;100.00
61908;BME280;47864;52.526;19.672;2023-04-25T06:11:37;99755.53;;;10.39;100.00
61908;BME280;47864;52.526;19.672;2023-04-25T06:13:39;99755.03;;;10.43;100.00
61908;BME280;47864;52.526;19.672;2023-04-25T06:15:40;99765.19;;;10.79;100.00
61908;BME280;47864;52.526;19.672;2023-04-25T06:17:42;99756.53;;;10.46;100.00
61908;BME280;47864;52.526;19.672;2023-04-25T06:19:44;99746.59;;;10.32;100.00
61908;BME280;47864;52.526;19.672;2023-04-25T06:21:45;99759.78;;;10.56;100.00
61908;BME280;47864;52.526;19.672;2023-04-25T06:23:47;99755.91;;;10.27;100.00
61908;BME280;47864;52.526;19.672;2023-04-25T06:25:49;99753.66;;;10.55;100.00
61908;BME280;47864;52.526;19.672;2023-04-25T06:27:51;99751.31;;;10.60;100.00
61908;BME280;47864;52.526;19.672;2023-04-25T06:29:52;99768.41;;;10.58;100.00
61908;BME280;47864;52.526;19.672;2023-04-25T06:31:54;99763.06;;;10.66;100.00
61908;BME280;47864;52.526;19.672;2023-04-25T06:33:55;99765.50;;;10.76;100.00
61908;BME280;47864;52.526;19.672;2023-04-25T06:35:57;99773.03;;;10.56;100.00
61908;BME280;47864;52.526;19.672;2023-04-25T06:37:58;99749.91;;;10.34;100.00
61908;BME280;47864;52.526;19.672;2023-04-25T06:40:00;99755.81;;;10.52;100.00
61908;BME280;47864;52.526;19.672;2023-04-25T06:42:01;99771.72;;;10.60;100.00
61908;BME280;47864;52.526;19.672;2023-04-25T06:44:03;99779.84;;;10.58;100.00
61908;BME280;47864;52.526;19.672;2023-04-25T06:46:04;99783.31;;;10.59;100.00
61908;BME280;47864;52.526;19.672;2023-04-25T06:48:06;99777.28;;;10.73;100.00
61908;BME280;47864;52.526;19.672;2023-04-25T06:50:08;99789.22;;;10.77;100.00
61908;BME280;47864;52.526;19.672;2023-04-25T06:52:10;99770.09;;;10.90;100.00
61908;BME280;47864;52.526;19.672;2023-04-25T06:54:11;99792.63;;;11.25;100.00
61908;BME280;47864;52.526;19.672;2023-04-25T06:56:13;99789.66;;;11.73;100.00
61908;BME280;47864;52.526;19.672;2023-04-25T06:58:14;99788.56;;;11.37;100.00
61908;BME280;47864;52.526;19.672;2023-04-25T07:00:16;99786.13;;;11.81;100.00
61908;BME280;47864;52.526;19.672;2023-04-25T07:02:18;99779.97;;;11.58;100.00
61908;BME280;47864;52.526;19.672;2023-04-25T07:04:19;99769.41;;;11.50;100.00
61908;BME280;47864;52.526;19.672;2023-04-25T07:06:21;99782.22;;;11.92;100.00
61908;BME280;47864;52.526;19.672;2023-04-25T07:08:23;99788.44;;;11.84;100.00
61908;BME280;47864;52.526;19.672;2023-04-25T07:10:24;99793.69;;;11.92;100.00
61908;BME280;47864;52.526;19.672;2023-04-25T07:12:26;99789.72;;;11.88;100.00
61908;BME280;47864;52.526;19.672;2023-04-25T07:14:28;99798.59;;;11.80;100.00
61908;BME280;47864;52.526;19.672;2023-04-25T07:16:29;99787.97;;;11.80;100.00
61908;BME280;47864;52.526;19.672;2023-04-25T07:18:31;99793.28;;;11.80;100.00
61908;BME280;47864;52.526;19.672;2023-04-25T07:20:32;99791.97;;;11.99;100.00
61908;BME280;47864;52.526;19.672;2023-04-25T07:22:34;99787.88;;;11.89;100.00
61908;BME280;47864;52.526;19.672;2023-04-25T07:24:36;99784.69;;;11.48;100.00
61908;BME280;47864;52.526;19.672;2023-04-25T07:26:37;99789.13;;;11.78;100.00
61908;BME280;47864;52.526;19.672;2023-04-25T07:28:39;99795.97;;;11.50;100.00
61908;BME280;47864;52.526;19.672;2023-04-25T07:30:40;99779.53;;;11.23;100.00
61908;BME280;47864;52.526;19.672;2023-04-25T07:32:41;99795.94;;;11.27;100.00
61908;BME280;47864;52.526;19.672;2023-04-25T07:34:43;99761.13;;;10.91;100.00
61908;BME280;47864;52.526;19.672;2023-04-25T07:36:44;99798.19;;;11.07;100.00
61908;BME280;47864;52.526;19.672;2023-04-25T07:38:46;99805.53;;;10.97;100.00
61908;BME280;47864;52.526;19.672;2023-04-25T07:40:48;99793.38;;;11.11;100.00
61908;BME280;47864;52.526;19.672;2023-04-25T07:42:50;99813.25;;;11.15;100.00
61908;BME280;47864;52.526;19.672;2023-04-25T07:44:51;99790.72;;;11.11;100.00
61908;BME280;47864;52.526;19.672;2023-04-25T07:46:53;99791.84;;;10.85;100.00
61908;BME280;47864;52.526;19.672;2023-04-25T07:48:54;99785.84;;;10.91;100.00
61908;BME280;47864;52.526;19.672;2023-04-25T07:50:56;99809.31;;;11.11;100.00
61908;BME280;47864;52.526;19.672;2023-04-25T07:52:58;99800.97;;;11.14;100.00
61908;BME280;47864;52.526;19.672;2023-04-25T07:54:59;99801.81;;;11.14;100.00
61908;BME280;47864;52.526;19.672;2023-04-25T07:57:01;99810.13;;;11.42;100.00
61908;BME280;47864;52.526;19.672;2023-04-25T07:59:02;99791.94;;;11.54;100.00
61908;BME280;47864;52.526;19.672;2023-04-25T08:01:03;99816.09;;;11.44;100.00
61908;BME280;47864;52.526;19.672;2023-04-25T08:03:05;99803.22;;;11.56;100.00
61908;BME280;47864;52.526;19.672;2023-04-25T08:05:07;99814.63;;;11.64;100.00
61908;BME280;47864;52.526;19.672;2023-04-25T08:07:09;99805.31;;;11.68;100.00
61908;BME280;47864;52.526;19.672;2023-04-25T08:09:10;99816.84;;;11.84;100.00
61908;BME280;47864;52.526;19.672;2023-04-25T08:11:12;99824.41;;;11.64;100.00
61908;BME280;47864;52.526;19.672;2023-04-25T08:13:13;99823.06;;;11.68;100.00
61908;BME280;47864;52.526;19.672;2023-04-25T08:15:15;99817.03;;;11.51;100.00
61908;BME280;47864;52.526;19.672;2023-04-25T08:17:16;99805.25;;;11.23;100.00
61908;BME280;47864;52.526;19.672;2023-04-25T08:19:18;99806.47;;;11.43;100.00
61908;BME280;47864;52.526;19.672;2023-04-25T08:21:19;99836.19;;;11.69;100.00
61908;BME280;47864;52.526;19.672;2023-04-25T08:23:21;99830.66;;;11.71;100.00
61908;BME280;47864;52.526;19.672;2023-04-25T08:25:22;99825.75;;;11.91;100.00
61908;BME280;47864;52.526;19.672;2023-04-25T08:27:24;99824.28;;;11.57;100.00
61908;BME280;47864;52.526;19.672;2023-04-25T08:29:25;99833.66;;;11.76;100.00
61908;BME280;47864;52.526;19.672;2023-04-25T08:31:27;99835.78;;;11.80;100.00
61908;BME280;47864;52.526;19.672;2023-04-25T08:33:28;99829.41;;;11.90;100.00
61908;BME280;47864;52.526;19.672;2023-04-25T08:35:30;99840.91;;;12.05;100.00
61908;BME280;47864;52.526;19.672;2023-04-25T08:37:31;99821.59;;;11.65;100.00
61908;BME280;47864;52.526;19.672;2023-04-25T08:39:33;99818.59;;;11.68;100.00
61908;BME280;47864;52.526;19.672;2023-04-25T08:41:36;99833.44;;;11.86;100.00
61908;BME280;47864;52.526;19.672;2023-04-25T08:43:42;99838.34;;;12.11;100.00
61908;BME280;47864;52.526;19.672;2023-04-25T08:45:43;99813.19;;;11.85;100.00
61908;BME280;47864;52.526;19.672;2023-04-25T08:47:45;99838.50;;;12.18;100.00
61908;BME280;47864;52.526;19.672;2023-04-25T08:49:53;99828.06;;;12.46;100.00
61908;BME280;47864;52.526;19.672;2023-04-25T08:52:02;99840.28;;;12.40;100.00
61908;BME280;47864;52.526;19.672;2023-04-25T08:54:11;99831.44;;;12.25;100.00
61908;BME280;47864;52.526;19.672;2023-04-25T08:56:31;99838.34;;;12.34;100.00
61908;BME280;47864;52.526;19.672;2023-04-25T08:58:33;99843.94;;;12.39;100.00
61908;BME280;47864;52.526;19.672;2023-04-25T09:00:35;99842.22;;;12.90;100.00
61908;BME280;47864;52.526;19.672;2023-04-25T09:02:36;99837.19;;;13.25;98.81
61908;BME280;47864;52.526;19.672;2023-04-25T09:04:38;99840.47;;;13.63;95.58
61908;BME280;47864;52.526;19.672;2023-04-25T09:06:40;99827.31;;;13.11;93.01
61908;BME280;47864;52.526;19.672;2023-04-25T09:08:42;99837.06;;;13.18;91.99
61908;BME280;47864;52.526;19.672;2023-04-25T09:10:43;99843.47;;;13.39;96.38
61908;BME280;47864;52.526;19.672;2023-04-25T09:13:01;99844.31;;;13.39;88.07
61908;BME280;47864;52.526;19.672;2023-04-25T09:15:05;99849.75;;;12.87;98.39
61908;BME280;47864;52.526;19.672;2023-04-25T09:17:07;99851.34;;;12.44;98.89
61908;BME280;47864;52.526;19.672;2023-04-25T09:19:21;99851.66;;;12.78;97.09
61908;BME280;47864;52.526;19.672;2023-04-25T09:21:38;99851.66;;;12.49;97.79
61908;BME280;47864;52.526;19.672;2023-04-25T09:23:48;99848.38;;;12.91;96.92
61908;BME280;47864;52.526;19.672;2023-04-25T09:25:51;99846.69;;;12.46;98.12
61908;BME280;47864;52.526;19.672;2023-04-25T09:27:53;99853.41;;;12.56;97.12
61908;BME280;47864;52.526;19.672;2023-04-25T09:29:58;99847.91;;;12.43;99.37
61908;BME280;47864;52.526;19.672;2023-04-25T09:32:22;99858.69;;;12.04;98.48
61908;BME280;47864;52.526;19.672;2023-04-25T09:34:25;99844.94;;;12.38;100.00
61908;BME280;47864;52.526;19.672;2023-04-25T09:36:27;99852.78;;;11.94;99.52
61908;BME280;47864;52.526;19.672;2023-04-25T09:38:30;99846.22;;;12.05;99.51
61908;BME280;47864;52.526;19.672;2023-04-25T09:40:32;99856.22;;;12.40;100.00
61908;BME280;47864;52.526;19.672;2023-04-25T09:42:33;99835.28;;;12.23;99.77
61908;BME280;47864;52.526;19.672;2023-04-25T09:44:35;99844.00;;;12.31;96.10
61908;BME280;47864;52.526;19.672;2023-04-25T09:46:37;99838.72;;;12.46;98.79
61908;BME280;47864;52.526;19.672;2023-04-25T09:48:39;99850.47;;;12.51;99.66
61908;BME280;47864;52.526;19.672;2023-04-25T09:50:40;99846.78;;;13.11;94.33
61908;BME280;47864;52.526;19.672;2023-04-25T09:52:42;99845.19;;;13.46;88.98
61908;BME280;47864;52.526;19.672;2023-04-25T09:54:48;99845.84;;;13.48;84.65
61908;BME280;47864;52.526;19.672;2023-04-25T09:56:51;99843.13;;;13.12;86.33
61908;BME280;47864;52.526;19.672;2023-04-25T09:58:53;99847.00;;;13.24;88.03
61908;BME280;47864;52.526;19.672;2023-04-25T10:00:59;99854.88;;;13.18;88.44
61908;BME280;47864;52.526;19.672;2023-04-25T10:03:02;99837.56;;;12.92;88.53
61908;BME280;47864;52.526;19.672;2023-04-25T10:05:08;99856.09;;;13.66;88.20
61908;BME280;47864;52.526;19.672;2023-04-25T10:07:10;99847.00;;;13.60;90.47
61908;BME280;47864;52.526;19.672;2023-04-25T10:09:12;99862.19;;;14.24;86.25
61908;BME280;47864;52.526;19.672;2023-04-25T10:11:15;99855.38;;;14.21;80.73
61908;BME280;47864;52.526;19.672;2023-04-25T10:13:17;99857.88;;;13.80;81.96
61908;BME280;47864;52.526;19.672;2023-04-25T10:15:19;99860.94;;;13.98;80.43
61908;BME280;47864;52.526;19.672;2023-04-25T10:17:21;99852.97;;;13.62;84.30
61908;BME280;47864;52.526;19.672;2023-04-25T10:19:23;99854.63;;;13.85;85.34
61908;BME280;47864;52.526;19.672;2023-04-25T10:21:25;99856.72;;;13.89;81.22
61908;BME280;47864;52.526;19.672;2023-04-25T10:23:30;99856.41;;;13.99;81.61
61908;BME280;47864;52.526;19.672;2023-04-25T10:25:33;99856.69;;;13.83;83.24
61908;BME280;47864;52.526;19.672;2023-04-25T10:27:35;99862.94;;;13.96;80.32
61908;BME280;47864;52.526;19.672;2023-04-25T10:29:37;99858.75;;;13.66;82.90